createdAt,value
2023-07-15T00:01:37.730Z,86.97
2023-07-15T00:04:05.830Z,85.29
2023-07-15T00:06:32.828Z,85.08
2023-07-15T00:09:00.253Z,87.04
2023-07-15T00:11:31.746Z,87.88
2023-07-15T00:13:59.494Z,86.81
2023-07-15T00:16:31.166Z,85.30
2023-07-15T00:18:58.501Z,85.86
2023-07-15T00:21:32.151Z,85.11
2023-07-15T00:24:01.778Z,86.28
2023-07-15T00:26:35.782Z,84.62
2023-07-15T00:29:05.545Z,85.69
2023-07-15T00:31:33.913Z,92.77
2023-07-15T00:34:01.426Z,91.07
2023-07-15T00:36:28.360Z,86.10
2023-07-15T00:38:55.157Z,83.84
2023-07-15T00:41:28.402Z,84.68
2023-07-15T00:43:59.970Z,87.21
2023-07-15T00:46:58.299Z,86.44
2023-07-15T00:49:31.877Z,85.54
2023-07-15T00:52:06.137Z,84.67
2023-07-15T00:54:35.631Z,86.14
2023-07-15T00:57:02.632Z,87.79
2023-07-15T00:59:30.907Z,86.31
2023-07-15T01:01:58.026Z,86.39
2023-07-15T01:04:24.975Z,85.77
2023-07-15T01:06:51.996Z,87.31
2023-07-15T01:09:18.894Z,85.80
2023-07-15T01:11:45.812Z,85.29
2023-07-15T01:14:14.299Z,87.39
2023-07-15T01:16:42.204Z,87.74
2023-07-15T01:19:10.022Z,87.67
2023-07-15T01:21:37.991Z,90.48
2023-07-15T01:24:05.200Z,93.05
2023-07-15T01:26:32.784Z,92.65
2023-07-15T01:28:59.845Z,90.47
2023-07-15T01:31:28.191Z,90.00
2023-07-15T01:33:55.215Z,89.42
2023-07-15T01:36:22.202Z,88.06
2023-07-15T01:38:49.417Z,87.23
2023-07-15T01:41:16.338Z,87.48
2023-07-15T01:43:43.253Z,89.27
2023-07-15T01:48:37.891Z,88.77
2023-07-15T01:51:04.776Z,90.34
2023-07-15T01:53:31.652Z,89.35
2023-07-15T01:55:58.536Z,88.59
2023-07-15T01:58:25.411Z,91.35
2023-07-15T02:00:52.367Z,96.46
2023-07-15T02:03:19.393Z,95.17
2023-07-15T02:05:46.586Z,94.60
2023-07-15T02:08:13.558Z,92.89
2023-07-15T02:10:40.417Z,92.74
2023-07-15T02:13:07.249Z,93.90
2023-07-15T02:15:34.188Z,91.63
2023-07-15T02:18:01.213Z,92.27
2023-07-15T02:20:28.091Z,91.82
2023-07-15T02:22:54.991Z,92.60
2023-07-15T02:25:22.001Z,91.73
2023-07-15T02:27:51.053Z,89.99
2023-07-15T02:30:18.152Z,90.84
2023-07-15T02:32:45.429Z,90.78
2023-07-15T02:35:14.993Z,91.04
2023-07-15T02:37:45.239Z,92.40
2023-07-15T02:40:12.748Z,92.59
2023-07-15T02:42:40.116Z,90.96
2023-07-15T02:45:09.287Z,92.68
2023-07-15T02:47:38.175Z,95.16
2023-07-15T02:50:07.927Z,94.86
2023-07-15T02:52:36.212Z,94.26
2023-07-15T02:55:10.428Z,94.69
2023-07-15T02:57:37.355Z,94.22
2023-07-15T03:00:13.113Z,91.21
2023-07-15T03:02:40.520Z,92.34
2023-07-15T03:05:07.997Z,88.77
2023-07-15T03:07:35.563Z,91.69
2023-07-15T03:10:03.552Z,92.69
2023-07-15T03:12:30.397Z,89.58
2023-07-15T03:14:57.372Z,89.87
2023-07-15T03:17:24.256Z,90.49
2023-07-15T03:19:51.177Z,90.49
2023-07-15T03:22:18.472Z,92.17
2023-07-15T03:24:45.421Z,93.27
2023-07-15T03:27:12.282Z,91.66
2023-07-15T03:29:39.184Z,91.37
2023-07-15T03:32:06.183Z,91.80
2023-07-15T03:34:33.141Z,93.08
2023-07-15T03:37:00.144Z,93.36
2023-07-15T03:39:27.066Z,91.79
2023-07-15T03:41:53.921Z,90.46
2023-07-15T03:44:20.831Z,93.20
2023-07-15T03:46:47.919Z,93.83
2023-07-15T03:49:14.937Z,92.80
2023-07-15T03:51:41.871Z,90.44
2023-07-15T03:54:08.785Z,91.12
2023-07-15T03:56:35.718Z,90.75
2023-07-15T03:59:02.864Z,87.03
2023-07-15T04:01:29.899Z,83.40
2023-07-15T04:03:56.879Z,82.98
2023-07-15T04:06:24.805Z,81.07
2023-07-15T04:08:51.750Z,76.64
2023-07-15T04:11:19.262Z,72.60
2023-07-15T04:13:46.519Z,69.43
2023-07-15T04:16:14.222Z,65.53
2023-07-15T04:18:41.573Z,62.63
2023-07-15T04:21:08.513Z,59.63
2023-07-15T04:23:35.505Z,56.97
2023-07-15T04:26:03.426Z,55.84
2023-07-15T04:28:30.297Z,53.27
2023-07-15T04:30:57.585Z,51.05
2023-07-15T04:33:24.511Z,48.40
2023-07-15T04:35:51.570Z,46.38
2023-07-15T04:38:21.759Z,45.55
2023-07-15T04:40:48.647Z,44.33
2023-07-15T04:43:15.535Z,43.09
2023-07-15T04:45:42.495Z,42.81
2023-07-15T04:48:10.107Z,42.70
2023-07-15T04:50:37.497Z,41.61
2023-07-15T04:53:04.389Z,40.75
2023-07-15T04:55:31.258Z,40.12
2023-07-15T04:57:58.207Z,41.22
2023-07-15T05:00:25.041Z,40.66
2023-07-15T05:02:52.396Z,39.65
2023-07-15T05:05:19.326Z,39.61
2023-07-15T05:07:57.603Z,42.19
2023-07-15T05:10:26.121Z,44.91
2023-07-15T05:12:53.083Z,46.84
2023-07-15T05:15:20.078Z,44.72
2023-07-15T05:17:47.035Z,43.05
2023-07-15T05:20:18.038Z,44.10
2023-07-15T05:22:44.969Z,41.70
2023-07-15T05:25:15.243Z,40.76
2023-07-15T05:27:42.311Z,39.76
2023-07-15T05:30:10.211Z,40.04
2023-07-15T05:32:37.850Z,38.56
2023-07-15T05:35:05.463Z,38.56
2023-07-15T05:37:32.418Z,39.06
2023-07-15T05:39:59.312Z,40.20
2023-07-15T05:42:26.236Z,40.80
2023-07-15T05:44:53.126Z,40.77
2023-07-15T05:47:21.102Z,40.45
2023-07-15T05:49:48.518Z,41.15
2023-07-15T05:52:15.491Z,40.09
2023-07-15T05:54:42.411Z,40.29
2023-07-15T05:57:10.095Z,39.99
2023-07-15T05:59:37.022Z,39.87
2023-07-15T06:02:04.109Z,40.86
2023-07-15T06:04:31.096Z,41.90
2023-07-15T06:06:58.171Z,42.08
2023-07-15T06:09:25.081Z,42.21
2023-07-15T06:11:51.989Z,41.22
2023-07-15T06:14:18.876Z,40.86
2023-07-15T06:16:45.810Z,42.18
2023-07-15T06:19:12.754Z,42.00
2023-07-15T06:21:41.837Z,43.11
2023-07-15T06:24:08.951Z,42.83
2023-07-15T06:26:35.938Z,43.23
2023-07-15T06:29:05.742Z,44.68
2023-07-15T06:31:32.651Z,45.85
2023-07-15T06:33:59.595Z,47.15
2023-07-15T06:36:26.505Z,48.02
2023-07-15T06:38:53.364Z,47.66
2023-07-15T06:41:20.299Z,47.52
2023-07-15T06:43:47.187Z,48.28
2023-07-15T06:46:14.082Z,47.84
2023-07-15T06:48:41.009Z,47.17
2023-07-15T06:51:07.973Z,46.69
2023-07-15T06:53:34.859Z,48.32
2023-07-15T06:56:18.140Z,47.02
2023-07-15T06:58:46.769Z,47.84
2023-07-15T07:01:14.003Z,47.21
2023-07-15T07:03:41.193Z,47.55
2023-07-15T07:06:08.210Z,48.08
2023-07-15T07:08:35.250Z,47.37
2023-07-15T07:11:02.565Z,49.17
2023-07-15T07:13:29.642Z,48.92
2023-07-15T07:15:59.938Z,48.27
2023-07-15T07:18:27.351Z,47.27
2023-07-15T07:21:00.271Z,49.74
2023-07-15T07:23:27.418Z,46.81
2023-07-15T07:25:54.548Z,47.34
2023-07-15T07:28:27.848Z,47.07
2023-07-15T07:30:55.005Z,47.73
2023-07-15T07:33:21.910Z,48.69
2023-07-15T07:35:48.842Z,49.96
2023-07-15T07:38:15.751Z,46.30
2023-07-15T07:40:47.542Z,45.48
2023-07-15T07:43:14.493Z,45.72
2023-07-15T07:45:41.476Z,46.22
2023-07-15T07:48:08.489Z,46.96
2023-07-15T07:50:36.750Z,46.01
2023-07-15T07:53:03.682Z,46.03
2023-07-15T07:55:30.599Z,47.02
2023-07-15T07:57:57.841Z,46.08
2023-07-15T08:00:24.681Z,44.55
2023-07-15T08:02:51.641Z,46.30
2023-07-15T08:05:19.370Z,48.32
2023-07-15T08:07:46.306Z,45.22
2023-07-15T08:10:13.198Z,46.25
2023-07-15T08:12:40.085Z,46.73
2023-07-15T08:15:08.933Z,43.59
2023-07-15T08:17:37.273Z,44.96
2023-07-15T08:20:05.194Z,45.12
2023-07-15T08:22:32.137Z,47.37
2023-07-15T08:24:59.036Z,43.49
2023-07-15T08:27:25.901Z,45.47
2023-07-15T08:29:52.959Z,45.60
2023-07-15T08:32:19.900Z,44.25
2023-07-15T08:35:04.430Z,44.45
2023-07-15T08:37:31.704Z,45.52
2023-07-15T08:39:58.569Z,45.25
2023-07-15T08:42:25.716Z,45.09
2023-07-15T08:44:52.909Z,46.39
2023-07-15T08:47:21.871Z,46.34
2023-07-15T08:49:50.080Z,46.07
2023-07-15T08:52:22.009Z,44.86
2023-07-15T08:54:50.139Z,44.79
2023-07-15T08:57:21.553Z,46.33
2023-07-15T08:59:49.989Z,49.51
2023-07-15T09:02:17.271Z,46.73
2023-07-15T09:04:44.205Z,45.20
2023-07-15T09:07:11.138Z,44.30
2023-07-15T09:09:39.925Z,44.35
2023-07-15T09:12:11.311Z,44.57
2023-07-15T09:14:52.760Z,45.86
2023-07-15T09:17:21.828Z,45.34
2023-07-15T09:19:49.336Z,45.23
2023-07-15T09:22:17.141Z,44.88
2023-07-15T09:24:44.168Z,44.32
2023-07-15T09:27:11.287Z,45.58
2023-07-15T09:29:38.467Z,45.07
2023-07-15T09:32:07.590Z,45.50
2023-07-15T09:34:40.474Z,44.84
2023-07-15T09:37:07.480Z,43.57
2023-07-15T09:39:34.376Z,45.94
2023-07-15T09:42:05.668Z,44.64
2023-07-15T09:44:45.190Z,44.23
2023-07-15T09:47:12.091Z,45.10
2023-07-15T09:49:39.235Z,43.54
2023-07-15T09:52:07.343Z,44.87
2023-07-15T09:54:35.012Z,44.09
2023-07-15T09:57:05.628Z,44.35
2023-07-15T09:59:38.328Z,45.17
2023-07-15T10:02:06.973Z,42.96
2023-07-15T10:04:39.101Z,42.63
2023-07-15T10:07:06.400Z,44.02
2023-07-15T10:09:33.304Z,41.90
2023-07-15T10:12:01.301Z,43.36
2023-07-15T10:14:31.509Z,43.07
2023-07-15T10:17:16.936Z,42.09
2023-07-15T10:19:51.921Z,44.06
2023-07-15T10:22:22.496Z,44.28
2023-07-15T10:24:57.370Z,45.87
2023-07-15T10:27:31.614Z,42.31
2023-07-15T10:30:17.422Z,43.47
2023-07-15T10:33:13.983Z,41.15
2023-07-15T10:35:43.936Z,43.80
2023-07-15T10:38:21.099Z,41.39
2023-07-15T10:40:57.668Z,42.09
2023-07-15T10:43:36.825Z,40.74
2023-07-15T10:46:09.056Z,43.13
2023-07-15T10:48:36.477Z,41.35
2023-07-15T10:51:10.393Z,39.48
2023-07-15T10:53:37.936Z,40.43
2023-07-15T10:56:06.264Z,42.48
2023-07-15T10:58:34.803Z,43.71
2023-07-15T11:01:04.924Z,41.02
2023-07-15T11:03:33.904Z,42.42
2023-07-15T11:06:03.090Z,43.80
2023-07-15T11:08:31.406Z,42.81
2023-07-15T11:11:02.048Z,41.72
2023-07-15T11:13:29.362Z,41.44
2023-07-15T11:15:56.968Z,43.23
2023-07-15T11:18:25.626Z,41.56
2023-07-15T11:21:00.246Z,41.64
2023-07-15T11:23:31.324Z,43.07
2023-07-15T11:25:58.931Z,44.60
2023-07-15T11:28:26.176Z,44.35
2023-07-15T11:30:53.380Z,43.00
2023-07-15T11:33:20.426Z,42.64
2023-07-15T11:35:47.785Z,43.35
2023-07-15T11:38:16.269Z,44.72
2023-07-15T11:41:09.589Z,42.28
2023-07-15T11:43:36.454Z,42.24
2023-07-15T11:46:03.459Z,42.59
2023-07-15T11:48:33.003Z,41.95
2023-07-15T11:51:09.774Z,44.57
2023-07-15T11:53:39.044Z,42.85
2023-07-15T11:56:09.844Z,43.42
2023-07-15T11:58:39.777Z,41.95
2023-07-15T12:01:07.257Z,44.10
2023-07-15T12:03:34.262Z,43.53
2023-07-15T12:06:01.307Z,43.33
2023-07-15T12:08:28.327Z,42.39
2023-07-15T12:10:56.351Z,45.20
2023-07-15T12:13:23.551Z,42.21
2023-07-15T12:15:50.409Z,43.48
2023-07-15T12:18:17.623Z,42.81
2023-07-15T12:20:44.528Z,45.49
2023-07-15T12:23:11.386Z,44.32
2023-07-15T12:25:38.321Z,42.80
2023-07-15T12:28:05.431Z,42.01
2023-07-15T12:30:32.312Z,42.69
2023-07-15T12:32:59.286Z,43.24
2023-07-15T12:35:26.233Z,42.84
2023-07-15T12:37:53.108Z,42.87
2023-07-15T12:40:19.990Z,42.67
2023-07-15T12:42:46.892Z,43.26
2023-07-15T12:45:16.276Z,43.16
2023-07-15T12:47:43.283Z,41.51
2023-07-15T12:50:10.553Z,45.69
2023-07-15T12:52:37.485Z,45.45
2023-07-15T12:55:06.230Z,44.80
2023-07-15T12:57:33.121Z,44.08
2023-07-15T12:59:59.977Z,45.63
2023-07-15T13:02:27.040Z,44.00
2023-07-15T13:04:54.020Z,43.00
2023-07-15T13:07:23.034Z,43.88
2023-07-15T13:09:50.004Z,44.73
2023-07-15T13:12:16.906Z,46.05
2023-07-15T13:14:43.747Z,46.13
2023-07-15T13:17:10.626Z,45.50
2023-07-15T13:19:37.498Z,45.42
2023-07-15T13:22:04.637Z,42.52
2023-07-15T13:24:31.542Z,44.91
2023-07-15T13:26:58.438Z,45.63
2023-07-15T13:29:25.460Z,43.76
2023-07-15T13:31:52.422Z,44.05
2023-07-15T13:34:19.336Z,44.48
2023-07-15T13:36:47.207Z,44.27
2023-07-15T13:39:35.014Z,44.74
2023-07-15T13:42:02.035Z,43.91
2023-07-15T13:44:29.110Z,43.77
2023-07-15T13:46:56.035Z,45.83
2023-07-15T13:49:22.886Z,43.99
2023-07-15T13:51:49.810Z,44.46
2023-07-15T13:54:17.133Z,43.59
2023-07-15T13:56:44.011Z,43.14
2023-07-15T13:59:10.901Z,45.28
2023-07-15T14:01:37.780Z,42.82
2023-07-15T14:04:06.568Z,42.66
2023-07-15T14:06:33.561Z,43.00
2023-07-15T14:09:00.434Z,43.62
2023-07-15T14:11:27.559Z,44.22
2023-07-15T14:13:54.646Z,43.02
2023-07-15T14:16:21.719Z,43.80
2023-07-15T14:18:48.592Z,44.15
2023-07-15T14:21:15.801Z,43.70
2023-07-15T14:23:42.993Z,44.16
2023-07-15T14:26:09.907Z,43.09
2023-07-15T14:28:37.682Z,44.43
2023-07-15T14:31:04.586Z,43.29
2023-07-15T14:33:31.535Z,43.30
2023-07-15T14:35:59.087Z,42.51
2023-07-15T14:38:26.054Z,42.48
2023-07-15T14:40:53.034Z,43.15
2023-07-15T14:43:19.980Z,44.82
2023-07-15T14:45:47.059Z,44.26
2023-07-15T14:48:13.942Z,44.19
2023-07-15T14:50:40.989Z,43.81
2023-07-15T14:53:08.575Z,44.71
2023-07-15T14:55:35.949Z,46.66
2023-07-15T14:58:03.129Z,44.50
2023-07-15T15:00:30.284Z,45.84
2023-07-15T15:02:57.355Z,44.75
2023-07-15T15:05:25.196Z,43.34
2023-07-15T15:07:52.078Z,43.63
2023-07-15T15:10:19.004Z,42.82
2023-07-15T15:12:45.899Z,43.81
2023-07-15T15:15:12.785Z,43.92
2023-07-15T15:17:39.712Z,44.55
2023-07-15T15:20:07.684Z,44.93
2023-07-15T15:22:34.628Z,45.70
2023-07-15T15:25:04.398Z,44.35
2023-07-15T15:27:31.671Z,45.60
2023-07-15T15:29:58.562Z,43.53
2023-07-15T15:32:25.649Z,43.99
2023-07-15T15:34:52.644Z,44.47
2023-07-15T15:37:19.636Z,44.80
2023-07-15T15:39:46.640Z,43.83
2023-07-15T15:42:13.518Z,45.10
2023-07-15T15:44:40.442Z,44.30
2023-07-15T15:47:08.133Z,45.52
2023-07-15T15:49:35.000Z,44.26
2023-07-15T15:52:01.881Z,45.24
2023-07-15T15:54:28.806Z,46.63
2023-07-15T15:56:56.208Z,46.18
2023-07-15T15:59:23.204Z,47.17
2023-07-15T16:01:50.104Z,45.44
2023-07-15T16:04:17.081Z,45.32
2023-07-15T16:06:44.120Z,46.10
2023-07-15T16:09:11.141Z,47.11
2023-07-15T16:11:39.265Z,46.91
2023-07-15T16:14:06.233Z,46.27
2023-07-15T16:16:33.195Z,46.15
2023-07-15T16:19:01.977Z,46.02
2023-07-15T16:21:28.869Z,47.85
2023-07-15T16:23:55.720Z,47.48
2023-07-15T16:26:22.687Z,47.65
2023-07-15T16:28:49.623Z,47.45
2023-07-15T16:31:16.820Z,46.23
2023-07-15T16:33:44.098Z,46.82
2023-07-15T16:36:10.952Z,47.51
2023-07-15T16:38:37.886Z,48.28
2023-07-15T16:41:04.755Z,48.68
2023-07-15T16:43:31.664Z,48.83
2023-07-15T16:45:58.596Z,48.65
2023-07-15T16:48:25.509Z,48.72
2023-07-15T16:50:52.392Z,48.51
2023-07-15T16:53:19.334Z,48.07
2023-07-15T16:55:46.232Z,48.66
2023-07-15T16:58:13.133Z,48.10
2023-07-15T17:00:40.031Z,47.85
2023-07-15T17:03:07.044Z,48.67
2023-07-15T17:05:34.000Z,48.11
2023-07-15T17:08:01.001Z,48.96
2023-07-15T17:10:27.903Z,49.90
2023-07-15T17:12:54.758Z,49.78
2023-07-15T17:15:21.672Z,48.80
2023-07-15T17:17:48.601Z,49.09
2023-07-15T17:20:15.493Z,48.09
2023-07-15T17:22:42.436Z,49.90
2023-07-15T17:25:09.784Z,48.40
2023-07-15T17:27:36.786Z,49.19
2023-07-15T17:30:04.053Z,49.91
2023-07-15T17:32:30.958Z,48.97
2023-07-15T17:34:57.892Z,50.20
2023-07-15T17:37:28.415Z,49.55
2023-07-15T17:39:55.579Z,50.45
2023-07-15T17:42:22.488Z,51.13
2023-07-15T17:44:49.393Z,50.18
2023-07-15T17:47:16.420Z,50.97
2023-07-15T17:49:43.335Z,51.55
2023-07-15T17:52:10.409Z,51.59
2023-07-15T17:54:37.304Z,53.69
2023-07-15T17:57:04.424Z,52.92
2023-07-15T17:59:31.307Z,53.54
2023-07-15T18:01:58.203Z,53.31
2023-07-15T18:04:25.108Z,53.47
2023-07-15T18:06:51.993Z,54.52
2023-07-15T18:09:19.017Z,54.36
2023-07-15T18:11:45.904Z,54.96
2023-07-15T18:14:12.802Z,55.00
2023-07-15T18:16:39.774Z,55.44
2023-07-15T18:19:06.730Z,54.54
2023-07-15T18:21:33.598Z,55.52
2023-07-15T18:24:00.442Z,54.86
2023-07-15T18:26:27.292Z,57.37
2023-07-15T18:28:54.158Z,56.04
2023-07-15T18:31:21.164Z,56.51
2023-07-15T18:33:48.070Z,56.50
2023-07-15T18:36:14.945Z,57.33
2023-07-15T18:38:41.882Z,57.96
2023-07-15T18:41:08.761Z,59.34
2023-07-15T18:43:35.638Z,59.37
2023-07-15T18:46:02.520Z,59.93
2023-07-15T18:48:29.463Z,60.58
2023-07-15T18:50:56.348Z,60.77
2023-07-15T18:53:23.210Z,61.78
2023-07-15T18:55:50.171Z,62.20
2023-07-15T18:58:17.276Z,62.52
2023-07-15T19:00:44.158Z,61.82
2023-07-15T19:03:11.182Z,62.40
2023-07-15T19:05:39.098Z,62.42
2023-07-15T19:08:06.097Z,63.89
2023-07-15T19:10:33.019Z,62.26
2023-07-15T19:12:59.921Z,63.10
2023-07-15T19:15:26.837Z,64.46
2023-07-15T19:17:53.777Z,62.85
2023-07-15T19:20:20.766Z,62.58
2023-07-15T19:22:47.643Z,62.61
2023-07-15T19:25:14.576Z,63.37
2023-07-15T19:27:41.468Z,63.03
2023-07-15T19:30:08.972Z,62.95
2023-07-15T19:32:36.015Z,61.61
2023-07-15T19:35:02.968Z,61.67
2023-07-15T19:37:29.869Z,60.93
2023-07-15T19:39:56.815Z,63.73
2023-07-15T19:42:23.737Z,60.20
2023-07-15T19:44:50.593Z,60.76
2023-07-15T19:47:17.554Z,62.75
2023-07-15T19:49:44.517Z,62.73
2023-07-15T19:52:11.434Z,63.61
2023-07-15T19:54:38.323Z,62.15
2023-07-15T19:57:05.585Z,61.88
2023-07-15T19:59:32.714Z,61.42
2023-07-15T20:01:59.695Z,59.71
2023-07-15T20:04:26.654Z,59.99
2023-07-15T20:06:55.750Z,60.77
2023-07-15T20:09:24.112Z,60.48
2023-07-15T20:11:55.511Z,59.93
2023-07-15T20:14:22.592Z,59.26
2023-07-15T20:16:49.559Z,58.87
2023-07-15T20:19:16.583Z,60.89
2023-07-15T20:21:43.513Z,59.94
2023-07-15T20:24:10.413Z,60.72
2023-07-15T20:26:37.315Z,62.03
2023-07-15T20:29:04.148Z,61.38
2023-07-15T20:31:31.035Z,62.20
2023-07-15T20:33:57.999Z,62.98
2023-07-15T20:36:24.842Z,62.92
2023-07-15T20:38:51.776Z,63.46
2023-07-15T20:41:20.251Z,63.43
2023-07-15T20:43:47.218Z,62.91
2023-07-15T20:46:14.374Z,63.32
2023-07-15T20:48:41.628Z,63.00
2023-07-15T20:51:09.667Z,62.70
2023-07-15T20:53:36.700Z,62.90
2023-07-15T20:56:03.720Z,63.88
2023-07-15T20:58:30.640Z,65.32
2023-07-15T21:00:57.511Z,65.92
2023-07-15T21:03:24.457Z,64.26
2023-07-15T21:06:05.182Z,64.79
2023-07-15T21:08:32.473Z,63.51
2023-07-15T21:11:01.017Z,64.62
2023-07-15T21:13:28.706Z,64.66
2023-07-15T21:15:55.822Z,66.96
2023-07-15T21:18:24.749Z,70.22
2023-07-15T21:20:52.226Z,76.49
2023-07-15T21:23:19.439Z,74.25
2023-07-15T21:25:47.469Z,74.81
2023-07-15T21:28:14.377Z,74.94
2023-07-15T21:30:45.040Z,73.55
2023-07-15T21:33:11.979Z,72.26
2023-07-15T21:35:38.877Z,75.42
2023-07-15T21:38:05.765Z,75.49
2023-07-15T21:40:33.801Z,73.70
2023-07-15T21:43:00.960Z,74.39
2023-07-15T21:45:27.823Z,73.70
2023-07-15T21:47:54.712Z,71.83
2023-07-15T21:50:21.644Z,74.87
2023-07-15T21:52:48.518Z,76.69
2023-07-15T21:55:15.469Z,77.02
2023-07-15T21:57:42.356Z,77.45
2023-07-15T22:00:15.510Z,77.41
2023-07-15T22:02:43.305Z,80.52
2023-07-15T22:05:10.902Z,81.31
2023-07-15T22:07:38.172Z,85.57
2023-07-15T22:10:06.208Z,86.24
2023-07-15T22:12:33.825Z,85.45
2023-07-15T22:15:01.029Z,86.21
2023-07-15T22:17:27.996Z,91.18
2023-07-15T22:19:54.945Z,89.92
2023-07-15T22:22:21.903Z,89.74
2023-07-15T22:24:49.610Z,91.87
2023-07-15T22:27:17.124Z,89.11
2023-07-15T22:29:44.302Z,85.88
2023-07-15T22:32:11.277Z,87.69
2023-07-15T22:34:38.200Z,87.89
2023-07-15T22:37:06.223Z,80.33
2023-07-15T22:39:33.583Z,79.15
2023-07-15T22:42:00.566Z,77.42
2023-07-15T22:44:27.479Z,80.23
2023-07-15T22:46:54.430Z,84.26
2023-07-15T22:49:21.360Z,80.45
2023-07-15T22:51:48.230Z,82.32
2023-07-15T22:54:15.137Z,81.18
2023-07-15T22:56:42.057Z,80.52
2023-07-15T22:59:08.977Z,81.04
2023-07-15T23:01:36.129Z,85.29
2023-07-15T23:04:03.192Z,86.74
2023-07-15T23:06:30.094Z,83.58
2023-07-15T23:08:57.013Z,82.43
2023-07-15T23:11:23.908Z,78.45
2023-07-15T23:13:50.774Z,78.45
2023-07-15T23:16:18.881Z,79.64
2023-07-15T23:18:47.568Z,79.47
2023-07-15T23:21:14.825Z,80.39
2023-07-15T23:23:42.789Z,78.91
2023-07-15T23:26:09.701Z,79.23
2023-07-15T23:28:36.647Z,82.55
2023-07-15T23:31:03.593Z,80.09
2023-07-15T23:33:30.490Z,84.21
2023-07-15T23:35:57.419Z,85.52
2023-07-15T23:38:24.448Z,82.95
2023-07-15T23:40:51.775Z,81.47
2023-07-15T23:43:18.633Z,84.54
2023-07-15T23:45:45.493Z,83.03
2023-07-15T23:48:12.446Z,80.89
2023-07-15T23:50:39.381Z,83.60
2023-07-15T23:53:06.365Z,84.87
2023-07-15T23:55:33.290Z,92.77
2023-07-15T23:58:01.171Z,93.16
